Time;durP1;ratioP1;P1;durP2;ratioP2;P2;SDS_P1;SDS_P2;PMS_P1;PMS_P2;Temp;Humidity;BMP_temperature;BMP_pressure;BME280_temperature;BME280_humidity;BME280_pressure;Samples;Min_cycle;Max_cycle;Signal;HPM_P1;HPM_P2
2022/10/06 00:02:11;;;;;;;1.67;1.57;;;;;;;18.07;44.58;102753.94;1668725;86;21083;-51
2022/10/06 00:04:38;;;;;;;1.70;1.60;;;;;;;18.06;44.55;102759.21;1668606;86;21027;-50
2022/10/06 00:07:05;;;;;;;3.17;1.82;;;;;;;18.02;44.46;102754.91;1668662;86;21070;-51
2022/10/06 00:09:32;;;;;;;2.00;1.70;;;;;;;18.00;44.45;102756.70;1668637;86;21035;-51
2022/10/06 00:11:59;;;;;;;2.27;1.80;;;;;;;17.96;44.50;102750.64;1668889;86;21038;-50
2022/10/06 00:14:26;;;;;;;2.33;1.50;;;;;;;17.93;44.48;102752.48;1687746;84;21040;-50
2022/10/06 00:16:53;;;;;;;1.70;1.60;;;;;;;17.91;44.48;102758.23;1686101;83;21065;-50
2022/10/06 00:19:20;;;;;;;2.40;1.87;;;;;;;17.86;44.31;102757.01;1686069;83;21053;-50
2022/10/06 00:21:47;;;;;;;1.92;1.65;;;;;;;17.83;44.48;102757.05;1685198;83;21097;-51
2022/10/06 00:24:14;;;;;;;2.45;1.70;;;;;;;17.81;44.44;102756.22;1685247;83;21001;-51
2022/10/06 00:26:42;;;;;;;2.17;1.80;;;;;;;17.78;44.55;102762.41;1683732;83;21096;-51
2022/10/06 00:29:08;;;;;;;2.83;2.08;;;;;;;17.75;44.51;102761.61;1682390;83;21058;-50
2022/10/06 00:31:35;;;;;;;4.47;1.75;;;;;;;17.73;44.36;102762.09;1682510;83;21604;-50
2022/10/06 00:34:01;;;;;;;2.12;1.70;;;;;;;17.69;44.19;102763.92;1685555;83;21049;-51
2022/10/06 00:36:28;;;;;;;2.47;1.70;;;;;;;17.66;43.98;102757.86;1697878;82;21057;-50
2022/10/06 00:38:55;;;;;;;2.60;1.77;;;;;;;17.64;43.83;102763.59;1778686;79;21032;-50
2022/10/06 00:41:23;;;;;;;2.65;1.75;;;;;;;17.60;43.98;102760.14;1767997;80;21072;-51
2022/10/06 00:43:52;;;;;;;5.05;1.87;;;;;;;17.58;43.82;102758.42;1783821;79;21006;-50
2022/10/06 00:46:45;;;;;;;1.75;1.60;;;;;;;17.55;43.80;102760.69;1767663;78;21038;-50
2022/10/06 00:49:30;;;;;;;2.67;2.00;;;;;;;17.53;43.87;102759.84;1775608;78;21017;-50
2022/10/06 00:52:03;;;;;;;2.67;1.98;;;;;;;17.50;43.68;102770.42;1777193;78;20968;-50
2022/10/06 00:54:31;;;;;;;2.00;1.80;;;;;;;17.47;43.69;102771.78;1706697;83;21037;-50
2022/10/06 00:56:58;;;;;;;3.17;1.85;;;;;;;17.44;43.72;102772.26;1730192;81;21014;-50
2022/10/06 00:59:24;;;;;;;2.08;1.87;;;;;;;17.41;43.84;102775.84;1774138;79;21548;-50
2022/10/06 01:02:02;;;;;;;2.33;1.80;;;;;;;17.39;43.56;102785.53;1777005;79;21476;-50
2022/10/06 01:04:34;;;;;;;3.12;1.87;;;;;;;17.32;43.74;102781.25;1773798;79;21024;-51
2022/10/06 01:07:00;;;;;;;2.72;2.00;;;;;;;17.26;44.27;102783.11;1776348;79;21000;-50
2022/10/06 01:09:27;;;;;;;4.70;2.12;;;;;;;17.18;44.52;102772.73;1777455;79;21544;-51
2022/10/06 01:11:59;;;;;;;2.10;1.87;;;;;;;17.13;44.74;102779.82;1739513;80;21007;-51
2022/10/06 01:14:26;;;;;;;3.15;2.15;;;;;;;17.09;45.10;102775.51;1777648;79;21035;-50
2022/10/06 01:17:00;;;;;;;2.30;1.90;;;;;;;17.06;45.51;102769.84;1776502;79;21075;-50
2022/10/06 01:19:55;;;;;;;2.40;1.92;;;;;;;17.06;45.97;102763.73;1776569;79;21047;-50
2022/10/06 01:22:32;;;;;;;3.50;2.10;;;;;;;17.05;46.36;102759.36;1773349;79;21099;-50
2022/10/06 01:24:59;;;;;;;2.10;1.85;;;;;;;17.08;46.38;102764.58;1772843;79;21540;-50
2022/10/06 01:27:28;;;;;;;2.75;1.87;;;;;;;17.12;46.15;102761.01;1776569;79;21016;-50
2022/10/06 01:29:54;;;;;;;2.77;1.80;;;;;;;17.15;46.22;102760.94;1776978;79;21082;-50
2022/10/06 01:32:22;;;;;;;2.17;1.72;;;;;;;17.16;46.37;102766.63;1776251;79;21067;-51
2022/10/06 01:34:48;;;;;;;2.05;1.87;;;;;;;17.20;46.29;102766.13;1776582;79;21044;-50
2022/10/06 01:37:15;;;;;;;2.95;2.33;;;;;;;17.21;46.19;102758.20;1778190;79;21130;-50
2022/10/06 01:39:43;;;;;;;3.40;1.87;;;;;;;17.22;46.16;102758.63;1777717;79;21083;-51
2022/10/06 01:42:10;;;;;;;3.90;1.72;;;;;;;17.22;46.38;102767.84;1772663;79;21099;-51
2022/10/06 01:44:37;;;;;;;7.03;2.05;;;;;;;17.19;46.24;102759.98;1750461;81;21013;-50
2022/10/06 01:47:05;;;;;;;2.10;1.77;;;;;;;17.17;46.20;102757.83;1777339;79;21000;-50
2022/10/06 01:49:32;;;;;;;5.60;2.12;;;;;;;17.14;46.32;102752.64;1776531;79;21071;-50
2022/10/06 01:52:00;;;;;;;2.02;1.90;;;;;;;17.14;46.58;102747.38;1832845;75;21001;-51
2022/10/06 01:54:27;;;;;;;2.90;2.17;;;;;;;17.16;46.74;102753.92;1836936;77;21536;-50
2022/10/06 01:56:55;;;;;;;9.63;3.22;;;;;;;17.18;46.83;102750.38;1847685;75;21509;-50
2022/10/06 01:59:23;;;;;;;5.00;2.47;;;;;;;17.22;46.83;102747.23;1841137;75;21018;-51
2022/10/06 02:01:50;;;;;;;4.12;2.60;;;;;;;17.26;47.00;102748.47;1847133;75;21025;-51
2022/10/06 02:04:17;;;;;;;2.52;1.85;;;;;;;17.29;46.99;102748.40;1849289;75;20988;-50
2022/10/06 02:06:44;;;;;;;2.33;2.12;;;;;;;17.33;46.60;102747.45;1845589;75;21029;-52
2022/10/06 02:09:11;;;;;;;5.92;2.20;;;;;;;17.35;45.83;102743.02;1845472;77;21485;-50
2022/10/06 02:11:40;;;;;;;3.37;2.20;;;;;;;17.36;45.32;102742.14;1851678;75;21026;-50
2022/10/06 02:14:07;;;;;;;2.77;2.22;;;;;;;17.36;44.66;102736.88;1849999;75;20997;-50
2022/10/06 02:16:34;;;;;;;3.47;2.30;;;;;;;17.36;44.17;102728.98;1841837;75;21006;-50
2022/10/06 02:19:02;;;;;;;4.45;2.92;;;;;;;17.36;44.00;102729.43;1846013;75;21053;-50
2022/10/06 02:21:29;;;;;;;5.72;2.50;;;;;;;17.34;43.78;102729.47;1847391;75;21508;-50
2022/10/06 02:23:56;;;;;;;3.67;2.47;;;;;;;17.34;43.79;102728.15;1850500;75;21505;-50
2022/10/06 02:26:23;;;;;;;3.33;2.22;;;;;;;17.32;43.72;102735.20;1850462;75;21033;-51
2022/10/06 02:28:50;;;;;;;3.12;2.22;;;;;;;17.31;43.76;102737.88;1848770;75;21048;-51
2022/10/06 02:31:19;;;;;;;4.97;2.37;;;;;;;17.29;43.81;102736.56;1847131;75;21064;-50
2022/10/06 02:33:46;;;;;;;2.85;2.08;;;;;;;17.28;43.89;102736.16;1849331;77;20996;-51
2022/10/06 02:36:15;;;;;;;2.85;2.27;;;;;;;17.26;43.89;102735.31;1850196;75;20997;-50
2022/10/06 02:38:43;;;;;;;2.95;2.30;;;;;;;17.25;43.76;102738.83;1850464;75;21060;-50
2022/10/06 02:41:10;;;;;;;3.50;2.00;;;;;;;17.24;43.79;102739.74;1842391;75;21058;-50
2022/10/06 02:43:37;;;;;;;4.50;1.90;;;;;;;17.23;43.72;102739.78;1836012;77;21081;-51
2022/10/06 02:46:12;;;;;;;4.10;2.10;;;;;;;17.20;43.69;102735.43;1830251;77;21016;-50
2022/10/06 02:48:40;;;;;;;4.10;2.00;;;;;;;17.18;43.78;102737.22;1831910;77;21003;-50
2022/10/06 02:51:11;;;;;;;2.40;2.12;;;;;;;17.16;43.93;102736.38;1815479;77;21046;-50
2022/10/06 02:53:38;;;;;;;3.58;2.55;;;;;;;17.17;43.99;102734.59;1838235;77;21484;-50
2022/10/06 02:56:17;;;;;;;4.90;2.20;;;;;;;17.15;43.85;102742.52;1825504;77;21054;-51
2022/10/06 02:58:46;;;;;;;2.58;2.08;;;;;;;17.14;43.72;102738.17;1836108;77;20964;-50
2022/10/06 03:01:24;;;;;;;4.28;2.27;;;;;;;17.12;43.69;102736.45;1836162;77;20999;-50
2022/10/06 03:03:53;;;;;;;2.33;1.95;;;;;;;17.10;43.76;102733.86;1839494;77;21057;-50
2022/10/06 03:06:24;;;;;;;3.50;2.45;;;;;;;17.10;43.63;102736.49;1834879;77;21281;-51
2022/10/06 03:09:07;;;;;;;6.00;2.08;;;;;;;17.10;43.98;102731.23;1670206;84;21075;-52
2022/10/06 03:11:38;;;;;;;3.27;2.00;;;;;;;17.11;44.32;102730.31;1669620;86;21061;-50
2022/10/06 03:14:05;;;;;;;2.10;1.90;;;;;;;17.12;44.61;102724.18;1670496;84;21580;-50
2022/10/06 03:16:40;;;;;;;2.17;1.80;;;;;;;17.14;44.64;102719.76;1670347;84;21566;-50
2022/10/06 03:19:09;;;;;;;2.17;2.00;;;;;;;17.15;44.95;102716.21;1670473;84;21086;-51
2022/10/06 03:21:39;;;;;;;2.87;2.00;;;;;;;17.18;45.09;102712.23;1670407;84;21149;-50
2022/10/06 03:24:08;;;;;;;5.62;1.72;;;;;;;17.19;45.27;102708.69;1670504;84;21035;-50
2022/10/06 03:26:39;;;;;;;3.75;1.70;;;;;;;17.24;45.52;102710.80;1658500;84;21566;-50
2022/10/06 03:29:07;;;;;;;3.52;1.98;;;;;;;17.26;45.53;102707.69;1657733;86;21531;-50
2022/10/06 03:31:35;;;;;;;2.95;2.30;;;;;;;17.29;45.46;102715.52;1656470;86;21081;-50
2022/10/06 03:34:03;;;;;;;3.42;1.87;;;;;;;17.31;45.50;102709.77;1655106;86;21061;-51
2022/10/06 03:36:32;;;;;;;4.53;1.95;;;;;;;17.33;45.18;102712.40;1656874;86;21057;-50
2022/10/06 03:39:00;;;;;;;2.10;1.90;;;;;;;17.34;44.94;102715.43;1653016;86;21088;-51
2022/10/06 03:41:29;;;;;;;2.58;1.72;;;;;;;17.34;44.54;102708.41;1667743;85;21555;-50
2022/10/06 03:43:57;;;;;;;3.67;2.37;;;;;;;17.34;44.64;102713.67;1668127;84;21084;-51
2022/10/06 03:46:29;;;;;;;5.05;2.20;;;;;;;17.34;44.52;102720.25;1669474;85;21181;-50
2022/10/06 03:48:56;;;;;;;3.83;2.37;;;;;;;17.34;44.35;102722.02;1671263;85;20997;-50
2022/10/06 03:51:28;;;;;;;3.10;2.33;;;;;;;17.34;44.35;102715.43;1670782;85;21682;-51
2022/10/06 03:53:55;;;;;;;3.12;2.00;;;;;;;17.33;44.54;102719.81;1624724;88;21543;-50
2022/10/06 03:56:31;;;;;;;3.10;1.95;;;;;;;17.32;44.43;102719.41;1624344;88;21055;-51
2022/10/06 03:59:01;;;;;;;3.02;2.10;;;;;;;17.32;44.51;102718.54;1547219;93;21077;-50
2022/10/06 04:01:32;;;;;;;4.92;3.67;;;;;;;17.31;44.81;102722.92;1570800;90;21075;-50
2022/10/06 04:04:00;;;;;;;4.75;3.40;;;;;;;17.30;45.03;102718.58;1587570;90;21047;-51
2022/10/06 04:06:29;;;;;;;8.55;3.50;;;;;;;17.30;45.04;102722.52;1636779;87;21573;-51
2022/10/06 04:08:56;;;;;;;8.00;3.17;;;;;;;17.29;45.28;102724.72;1647890;86;21049;-51
2022/10/06 04:11:30;;;;;;;5.83;2.30;;;;;;;17.30;45.49;102722.52;1647843;86;21084;-51
2022/10/06 04:14:03;;;;;;;5.20;2.60;;;;;;;17.30;45.55;102714.63;1648050;86;21509;-50
2022/10/06 04:16:41;;;;;;;5.55;2.08;;;;;;;17.31;45.65;102708.45;1623725;86;21070;-51
2022/10/06 04:19:10;;;;;;;2.80;2.17;;;;;;;17.33;45.67;102711.92;1624444;86;21018;-50
2022/10/06 04:21:42;;;;;;;3.22;2.20;;;;;;;17.35;45.52;102704.87;1625675;86;21073;-51
2022/10/06 04:24:11;;;;;;;4.00;2.42;;;;;;;17.38;45.28;102706.14;1626005;86;21029;-50
2022/10/06 04:26:47;;;;;;;2.70;2.00;;;;;;;17.38;45.31;102699.56;1621501;86;21088;-50
2022/10/06 04:29:15;;;;;;;3.30;2.72;;;;;;;17.39;45.26;102698.69;1629349;86;21105;-50
2022/10/06 04:31:42;;;;;;;2.75;1.98;;;;;;;17.38;45.08;102703.51;1628991;86;21091;-51
2022/10/06 04:34:13;;;;;;;4.60;2.47;;;;;;;17.38;44.81;102706.14;1626038;86;21092;-50
2022/10/06 04:36:41;;;;;;;3.05;1.70;;;;;;;17.38;44.37;102714.03;1628008;86;21092;-50
2022/10/06 04:39:12;;;;;;;5.40;1.90;;;;;;;17.37;44.27;102722.81;1628543;88;21631;-50
2022/10/06 04:41:41;;;;;;;2.58;1.77;;;;;;;17.37;44.32;102722.81;1629028;86;21111;-50
2022/10/06 04:44:10;;;;;;;2.47;2.08;;;;;;;17.37;44.27;102733.34;1628976;86;21608;-51
2022/10/06 04:46:39;;;;;;;2.87;1.87;;;;;;;17.36;44.11;102746.09;1629073;86;21561;-50
2022/10/06 04:49:08;;;;;;;3.45;1.95;;;;;;;17.37;43.45;102737.28;1686062;83;21581;-50
2022/10/06 04:51:35;;;;;;;2.95;2.00;;;;;;;17.36;43.53;102747.41;1781127;79;21519;-50
2022/10/06 04:54:03;;;;;;;3.58;1.70;;;;;;;17.35;43.58;102741.70;1800379;78;21506;-50
2022/10/06 04:56:32;;;;;;;3.15;1.70;;;;;;;17.35;43.66;102745.66;1789324;78;21056;-50
2022/10/06 04:59:01;;;;;;;5.33;2.17;;;;;;;17.36;43.72;102740.83;1789803;78;21060;-50
2022/10/06 05:01:34;;;;;;;1.98;1.77;;;;;;;17.38;43.95;102740.80;1796934;78;21017;-50
2022/10/06 05:04:04;;;;;;;3.90;1.77;;;;;;;17.39;44.13;102748.69;1797404;78;21336;-50
2022/10/06 05:06:39;;;;;;;2.62;2.00;;;;;;;17.41;44.31;102757.86;1792580;79;21053;-50
2022/10/06 05:09:10;;;;;;;1.98;1.77;;;;;;;17.42;44.57;102755.19;1797251;78;20973;-50
2022/10/06 05:11:38;;;;;;;2.95;1.90;;;;;;;17.43;44.60;102756.94;1775897;79;21575;-50
2022/10/06 05:14:06;;;;;;;2.87;2.17;;;;;;;17.44;44.63;102762.61;1728406;81;21002;-50
2022/10/06 05:16:36;;;;;;;2.92;2.33;;;;;;;17.46;44.85;102759.50;1721605;81;21028;-50
2022/10/06 05:19:06;;;;;;;2.25;1.70;;;;;;;17.48;45.17;102756.39;1729743;81;21517;-50
2022/10/06 05:21:35;;;;;;;2.67;1.82;;;;;;;17.53;45.45;102755.91;1810644;77;21081;-50
2022/10/06 05:24:03;;;;;;;5.58;2.00;;;;;;;17.57;45.72;102754.95;1811766;77;21556;-50
2022/10/06 05:26:32;;;;;;;1.95;1.75;;;;;;;17.61;45.75;102752.67;1813648;77;21594;-50
2022/10/06 05:28:59;;;;;;;1.70;1.60;;;;;;;17.67;45.79;102754.31;1813302;77;21005;-50
2022/10/06 05:31:30;;;;;;;2.02;1.82;;;;;;;17.72;45.93;102749.36;1810866;77;21603;-50
2022/10/06 05:33:58;;;;;;;4.47;2.47;;;;;;;17.79;46.11;102753.62;1720996;80;21080;-52
2022/10/06 05:36:28;;;;;;;6.78;2.30;;;;;;;17.83;46.21;102750.03;1745384;81;21061;-50
2022/10/06 05:38:56;;;;;;;3.15;1.95;;;;;;;17.89;46.42;102752.53;1760670;80;20969;-50
2022/10/06 05:41:28;;;;;;;3.47;2.40;;;;;;;18.00;46.52;102759.34;1760635;80;21660;-50
2022/10/06 05:43:55;;;;;;;2.12;1.92;;;;;;;18.01;46.73;102757.14;1762417;80;21057;-50
2022/10/06 05:46:26;;;;;;;3.20;2.02;;;;;;;18.06;46.84;102761.84;1763913;80;21033;-50
2022/10/06 05:49:00;;;;;;;2.40;2.12;;;;;;;18.09;46.91;102769.70;1765571;80;21021;-50
2022/10/06 05:51:30;;;;;;;2.62;2.00;;;;;;;18.13;47.14;102781.47;1761328;80;21057;-50
2022/10/06 05:53:58;;;;;;;3.60;1.92;;;;;;;18.19;47.27;102781.78;1761328;80;21013;-50
2022/10/06 05:56:28;;;;;;;3.55;2.08;;;;;;;18.26;47.41;102781.60;1761793;80;21581;-50
2022/10/06 05:58:56;;;;;;;3.25;1.77;;;;;;;18.33;47.64;102777.08;1660354;86;21082;-51
2022/10/06 06:01:33;;;;;;;2.70;2.50;;;;;;;18.40;47.90;102778.21;1662662;86;21064;-51
2022/10/06 06:04:03;;;;;;;2.98;2.08;;;;;;;18.48;48.17;102779.41;1662229;86;21158;-52
2022/10/06 06:06:39;;;;;;;2.77;2.15;;;;;;;18.56;48.57;102782.74;1658518;86;21083;-50
2022/10/06 06:09:16;;;;;;;3.85;2.25;;;;;;;18.64;48.43;102779.48;1663163;86;21595;-50
2022/10/06 06:11:47;;;;;;;2.72;2.00;;;;;;;18.71;48.24;102789.44;1647666;87;21098;-51
2022/10/06 06:17:06;;;;;;;3.47;1.80;;;;;;;18.86;47.63;102793.02;1632546;88;21475;-50
2022/10/06 06:19:34;;;;;;;3.92;2.02;;;;;;;18.93;47.21;102788.89;1577793;90;21074;-50
2022/10/06 06:22:01;;;;;;;2.90;2.02;;;;;;;19.01;46.95;102792.20;1616363;89;21122;-50
2022/10/06 06:24:31;;;;;;;4.03;1.70;;;;;;;19.08;46.86;102792.93;1613566;89;21075;-50
2022/10/06 06:26:58;;;;;;;3.72;2.00;;;;;;;19.14;46.66;102787.50;1616365;89;21193;-50
2022/10/06 06:29:25;;;;;;;1.75;1.60;;;;;;;19.20;46.45;102788.22;1616788;89;21037;-50
2022/10/06 06:31:52;;;;;;;4.08;1.70;;;;;;;19.26;45.68;102785.42;1692224;85;21052;-50
2022/10/06 06:34:21;;;;;;;2.22;1.67;;;;;;;19.32;44.82;102779.10;1694431;85;20994;-50
2022/10/06 06:36:52;;;;;;;2.50;1.67;;;;;;;19.38;44.47;102784.25;1694393;85;21092;-50
2022/10/06 06:39:18;;;;;;;2.35;1.77;;;;;;;19.44;44.09;102793.33;1691317;85;21600;-50
2022/10/06 06:41:47;;;;;;;2.67;1.70;;;;;;;19.52;44.07;102794.44;1690369;84;21048;-50
2022/10/06 06:44:33;;;;;;;2.80;1.92;;;;;;;19.59;43.99;102794.70;1674299;85;21045;-50
2022/10/06 06:47:05;;;;;;;4.22;1.60;;;;;;;19.66;43.51;102785.23;1622661;88;21588;-50
2022/10/06 06:49:31;;;;;;;1.47;1.35;;;;;;;19.73;43.13;102787.27;1622326;88;21136;-50
2022/10/06 06:52:04;;;;;;;1.65;1.42;;;;;;;19.80;42.47;102798.96;1622666;88;21597;-50
2022/10/06 06:54:31;;;;;;;2.42;1.72;;;;;;;19.88;42.11;102798.73;1622873;88;21120;-50
2022/10/06 06:57:02;;;;;;;1.92;1.30;;;;;;;19.94;40.98;102805.17;1619521;88;21151;-50
2022/10/06 06:59:32;;;;;;;4.10;1.62;;;;;;;20.01;40.78;102802.30;1622644;88;21616;-50
2022/10/06 07:01:57;;;;;;;2.80;1.47;;;;;;;20.08;40.74;102799.03;1658021;82;21000;-50
2022/10/06 07:04:25;;;;;;;3.15;1.40;;;;;;;20.15;40.49;102800.59;1708288;83;21059;-50
2022/10/06 07:06:56;;;;;;;4.22;1.62;;;;;;;20.23;40.55;102805.23;1707551;84;21087;-51
2022/10/06 07:09:21;;;;;;;1.85;1.30;;;;;;;20.27;40.45;102804.23;1688148;82;21088;-50
2022/10/06 07:11:49;;;;;;;1.75;1.50;;;;;;;20.32;40.38;102810.23;1666249;85;21032;-50
2022/10/06 07:14:17;;;;;;;1.55;1.45;;;;;;;20.35;40.47;102805.31;1597671;89;21126;-50
2022/10/06 07:25:23;;;;;;;2.42;1.62;;;;;;;20.40;41.05;102810.90;1583690;89;21128;-50
2022/10/06 07:27:52;;;;;;;1.80;1.40;;;;;;;20.40;41.13;102816.19;1598218;89;21088;-50
2022/10/06 07:30:25;;;;;;;;;;;;;;;20.40;41.21;102817.51;1590892;89;21043;-50
2022/10/06 07:32:54;;;;;;;1.92;1.32;;;;;;;20.40;41.24;102818.83;1591457;89;20156;-50
2022/10/06 07:35:23;;;;;;;2.77;1.70;;;;;;;20.41;41.33;102819.23;1586563;89;21581;-50
2022/10/06 07:40:21;;;;;;;2.30;1.60;;;;;;;20.41;41.68;102811.29;1509433;94;21134;-50
2022/10/06 07:42:47;;;;;;;2.12;1.40;;;;;;;20.42;42.00;102818.33;1504330;92;21160;-50
2022/10/06 07:45:40;;;;;;;1.75;1.30;;;;;;;20.43;42.20;102812.56;1560921;90;21116;-51
2022/10/06 07:48:17;;;;;;;1.60;1.25;;;;;;;20.44;42.40;102813.86;1523373;93;21641;-50
2022/10/06 07:50:50;;;;;;;2.87;1.40;;;;;;;20.45;42.63;102812.93;1537753;91;21077;-50
2022/10/06 07:53:18;;;;;;;1.65;1.50;;;;;;;20.46;42.28;102809.39;1523638;94;21128;-50
2022/10/06 07:55:48;;;;;;;2.40;1.25;;;;;;;20.48;41.92;102802.27;1539721;91;21172;-51
2022/10/06 07:58:23;;;;;;;2.65;1.37;;;;;;;20.53;41.61;102809.59;1523659;94;21150;-50
2022/10/06 08:00:53;;;;;;;2.55;1.45;;;;;;;20.57;41.55;102809.91;1539700;91;21089;-51
2022/10/06 08:03:21;;;;;;;3.00;1.50;;;;;;;20.64;41.62;102811.47;1523151;93;21094;-50
2022/10/06 08:05:49;;;;;;;2.27;1.55;;;;;;;20.69;41.75;102806.88;1539727;91;21097;-51
2022/10/06 08:08:16;;;;;;;2.42;1.60;;;;;;;20.78;41.67;102805.72;1532139;92;21071;-51
2022/10/06 08:10:48;;;;;;;3.22;1.57;;;;;;;20.86;41.19;102797.95;1555657;90;21011;-51
2022/10/06 08:13:15;;;;;;;2.22;1.60;;;;;;;20.97;40.74;102797.61;1553157;91;21092;-51
2022/10/06 08:15:43;;;;;;;1.67;1.40;;;;;;;21.06;40.69;102794.71;1582923;89;21072;-51
2022/10/06 08:18:09;;;;;;;1.72;1.60;;;;;;;21.18;41.05;102797.39;1568492;91;21109;-50
2022/10/06 08:20:36;;;;;;;2.92;1.70;;;;;;;21.28;41.02;102795.72;1582838;89;21532;-51
2022/10/06 08:23:07;;;;;;;3.70;1.80;;;;;;;21.37;41.05;102798.52;1568177;90;21136;-51
2022/10/06 08:25:37;;;;;;;1.52;1.42;;;;;;;21.44;40.85;102795.59;1582922;89;21141;-50
2022/10/06 08:28:00;;;;;;;2.12;1.90;;;;;;;21.51;40.85;102798.89;1574734;90;21585;-51
2022/10/06 08:30:27;;;;;;;2.33;1.87;;;;;;;21.55;41.12;102793.44;1588985;89;21063;-51
2022/10/06 08:32:55;;;;;;;3.25;1.60;;;;;;;21.59;41.45;102792.41;1568415;91;21622;-51
2022/10/06 08:35:23;;;;;;;1.60;1.50;;;;;;;21.63;41.62;102790.51;1585085;89;21088;-51
2022/10/06 08:37:49;;;;;;;1.57;1.37;;;;;;;21.63;41.51;102790.06;1597660;88;21353;-51
2022/10/06 08:40:17;;;;;;;1.98;1.35;;;;;;;21.64;41.35;102792.22;1604884;88;21618;-51
2022/10/06 08:42:47;;;;;;;1.40;1.30;;;;;;;21.64;40.78;102793.55;1625493;86;21134;-51
2022/10/06 08:45:34;;;;;;;3.02;1.37;;;;;;;21.64;40.75;102786.92;1724520;79;21025;-51
2022/10/06 08:48:18;;;;;;;1.82;1.50;;;;;;;21.66;39.98;102787.73;1686010;84;21088;-51
2022/10/06 08:51:09;;;;;;;2.95;1.67;;;;;;;21.70;39.40;102794.69;1674048;84;21201;-51
2022/10/06 08:53:45;;;;;;;1.95;1.32;;;;;;;21.53;39.17;102785.13;1579288;90;21040;-51
2022/10/06 08:56:18;;;;;;;2.55;1.22;;;;;;;21.77;38.77;102785.13;1561521;90;21602;-51
2022/10/06 08:58:57;;;;;;;1.42;1.32;;;;;;;21.87;38.00;102789.65;1564874;90;21168;-52
2022/10/06 09:01:27;;;;;;;2.52;1.32;;;;;;;21.74;37.49;102784.38;1564478;90;21153;-51
2022/10/06 09:04:00;;;;;;;1.40;1.30;;;;;;;21.75;37.99;102776.81;1572431;90;21099;-52
2022/10/06 09:06:59;;;;;;;3.33;1.27;;;;;;;21.88;37.83;102774.63;1564003;90;21061;-51
2022/10/06 09:09:55;;;;;;;1.40;1.22;;;;;;;22.10;37.67;102770.23;1561546;92;21070;-52
2022/10/06 09:12:46;;;;;;;2.35;1.30;;;;;;;22.20;37.37;102768.51;1561963;91;21551;-51
2022/10/06 09:15:25;;;;;;;1.70;1.50;;;;;;;22.26;36.92;102766.07;1537886;93;21089;-52
2022/10/06 09:18:13;;;;;;;2.42;1.42;;;;;;;22.32;36.81;102769.36;1539272;93;21154;-53
2022/10/06 09:20:55;;;;;;;1.87;1.50;;;;;;;22.38;36.93;102766.46;1470826;97;21126;-51
2022/10/06 09:26:14;;;;;;;1.65;1.52;;;;;;;22.49;37.28;102761.61;1447206;98;21124;-52
2022/10/06 09:28:44;;;;;;;2.27;1.80;;;;;;;22.55;37.36;102760.04;1447823;98;21140;-51
2022/10/06 09:31:20;;;;;;;4.67;1.50;;;;;;;22.62;37.19;102760.24;1446612;98;21157;-51
2022/10/06 09:33:48;;;;;;;3.02;1.70;;;;;;;22.67;37.10;102762.69;1490517;92;21140;-51
2022/10/06 09:36:15;;;;;;;3.72;1.40;;;;;;;22.72;37.35;102759.84;1536086;91;21184;-51
2022/10/06 09:38:52;;;;;;;3.50;1.67;;;;;;;22.74;37.03;102762.84;1538390;93;21134;-50
2022/10/06 09:41:23;;;;;;;2.47;1.45;;;;;;;22.78;37.08;102756.94;1543026;92;21071;-52
2022/10/06 09:43:56;;;;;;;1.95;1.42;;;;;;;22.81;37.27;102764.80;1527088;93;21239;-51
2022/10/06 09:46:30;;;;;;;1.62;1.47;;;;;;;22.84;37.14;102759.34;1440868;97;21150;-51
2022/10/06 09:49:19;;;;;;;2.37;1.50;;;;;;;22.87;37.23;102759.23;1458875;97;21719;-51
2022/10/06 09:54:43;;;;;;;2.60;1.55;;;;;;;22.94;37.05;102759.36;1394510;100;21074;-52
2022/10/06 09:57:17;;;;;;;5.60;1.92;;;;;;;22.96;36.94;102759.70;1407506;98;21612;-51
2022/10/06 09:59:45;;;;;;;1.82;1.47;;;;;;;22.99;36.50;102756.06;1442897;98;21106;-51
2022/10/06 10:02:39;;;;;;;1.85;1.40;;;;;;;23.01;36.74;102748.89;1438960;98;21693;-52
2022/10/06 10:05:18;;;;;;;1.80;1.40;;;;;;;23.04;36.76;102746.97;1443568;98;21770;-51
2022/10/06 10:07:46;;;;;;;2.33;1.32;;;;;;;23.08;37.11;102745.06;1442286;98;21155;-51
2022/10/06 10:10:21;;;;;;;3.20;1.70;;;;;;;23.11;37.33;102742.27;1422816;98;21110;-51
2022/10/06 10:12:55;;;;;;;2.92;1.52;;;;;;;23.15;37.69;102739.88;1421095;100;22382;-51
2022/10/06 10:15:33;;;;;;;4.28;1.27;;;;;;;23.19;38.03;102734.83;1412355;100;21147;-51
2022/10/06 10:18:04;;;;;;;1.70;1.60;;;;;;;23.24;37.84;102732.85;1417958;100;21092;-51
2022/10/06 10:20:38;;;;;;;2.22;1.70;;;;;;;23.28;37.57;102725.14;1397834;101;21081;-51
2022/10/06 10:23:25;;;;;;;2.72;1.72;;;;;;;23.34;37.85;102728.89;1399886;101;21157;-51
2022/10/06 10:26:25;;;;;;;2.98;2.00;;;;;;;23.38;37.88;102722.52;1377665;104;21107;-51
2022/10/06 10:29:29;;;;;;;2.37;1.70;;;;;;;23.42;38.12;102718.79;1379429;104;21142;-52
2022/10/06 10:32:19;;;;;;;2.70;1.80;;;;;;;23.47;38.05;102722.58;1363934;104;21220;-52
2022/10/06 10:35:03;;;;;;;5.28;1.80;;;;;;;23.50;37.83;102719.31;1367452;104;21173;-52
2022/10/06 10:37:54;;;;;;;4.92;1.52;;;;;;;23.57;37.68;102717.25;1361925;104;21557;-52
2022/10/06 10:40:34;;;;;;;1.92;1.62;;;;;;;23.61;37.81;102711.73;1362112;104;21141;-51
2022/10/06 10:43:24;;;;;;;3.55;1.40;;;;;;;23.60;38.11;102711.32;1396953;99;21760;-51
2022/10/06 10:46:15;;;;;;;1.82;1.65;;;;;;;23.62;38.42;102713.44;1443395;98;21158;-52
2022/10/06 10:49:11;;;;;;;3.65;1.25;;;;;;;23.59;38.56;102710.07;1465066;96;21137;-51
2022/10/06 10:51:48;;;;;;;2.77;1.20;;;;;;;23.67;38.47;102706.13;1482283;93;21599;-51
2022/10/06 10:54:41;;;;;;;1.80;1.60;;;;;;;23.63;38.63;102704.55;1534714;92;21141;-51
2022/10/06 10:57:15;;;;;;;2.52;1.60;;;;;;;23.63;38.35;102699.23;1535774;91;21134;-52
2022/10/06 11:00:00;;;;;;;2.75;1.37;;;;;;;23.60;38.91;102709.98;1521292;94;21058;-51
2022/10/06 11:02:29;;;;;;;2.25;1.50;;;;;;;23.62;38.72;102700.16;1531080;93;21583;-52
2022/10/06 11:05:04;;;;;;;1.30;1.20;;;;;;;23.62;38.64;102705.47;1519046;93;21147;-51
2022/10/06 11:07:45;;;;;;;2.92;1.67;;;;;;;23.62;38.80;102697.98;1554547;92;21039;-52
2022/10/06 11:10:24;;;;;;;3.12;1.32;;;;;;;23.62;38.59;102697.50;1544039;92;21091;-52
2022/10/06 11:13:16;;;;;;;1.60;1.50;;;;;;;23.62;38.79;102693.51;1547785;92;21116;-51
2022/10/06 11:16:17;;;;;;;3.50;1.57;;;;;;;23.65;38.96;102689.39;1546827;90;21128;-51
2022/10/06 11:19:08;;;;;;;2.10;1.45;;;;;;;23.65;38.91;102684.08;1696266;82;21090;-52
2022/10/06 11:21:59;;;;;;;1.75;1.47;;;;;;;23.68;38.60;102694.55;1702071;83;21506;-52
2022/10/06 11:25:04;;;;;;;;;;;;;;;23.70;38.51;102690.03;1707277;83;21044;-52
2022/10/06 11:27:59;;;;;;;1.55;1.45;;;;;;;23.69;38.07;102677.69;1703010;83;20111;-51
2022/10/06 11:30:26;;;;;;;2.33;1.37;;;;;;;23.71;37.88;102681.14;1687624;84;21133;-51
2022/10/06 11:33:20;;;;;;;2.80;1.50;;;;;;;23.71;37.70;102680.27;1687062;84;21605;-52
2022/10/06 11:35:47;;;;;;;1.92;1.25;;;;;;;23.70;37.56;102675.91;1648048;86;21380;-51
2022/10/06 11:38:35;;;;;;;2.83;1.40;;;;;;;23.73;37.14;102673.95;1676879;85;21557;-52
2022/10/06 11:41:21;;;;;;;1.72;1.52;;;;;;;23.74;37.46;102675.66;1670295;85;20988;-51
2022/10/06 11:44:12;;;;;;;2.65;1.47;;;;;;;23.76;37.16;102668.48;1632283;87;21137;-52
2022/10/06 11:46:55;;;;;;;3.27;1.30;;;;;;;23.77;37.58;102666.23;1645266;87;21088;-51
2022/10/06 11:49:35;;;;;;;4.53;1.40;;;;;;;23.80;37.32;102668.73;1644411;87;21058;-51
2022/10/06 11:52:17;;;;;;;2.60;1.20;;;;;;;23.82;37.14;102665.53;1647349;87;21058;-51
2022/10/06 11:54:53;;;;;;;;;;;;;;;23.81;37.41;102666.48;1646057;87;21577;-52
2022/10/06 11:57:28;;;;;;;1.57;1.10;;;;;;;23.79;37.34;102663.03;1667731;85;20109;-51
2022/10/06 12:00:17;;;;;;;1.10;1.00;;;;;;;23.81;36.87;102666.48;1667096;85;21116;-51
2022/10/06 12:02:45;;;;;;;1.98;1.12;;;;;;;23.85;36.98;102662.74;1666141;85;21041;-52
2022/10/06 12:05:18;;;;;;;1.98;1.30;;;;;;;23.86;37.07;102657.84;1712326;83;21132;-51
2022/10/06 12:07:58;;;;;;;1.70;1.30;;;;;;;23.86;37.00;102657.84;1721382;81;21037;-52
2022/10/06 12:10:32;;;;;;;2.92;1.30;;;;;;;23.92;37.10;102661.53;1695083;83;21042;-51
2022/10/06 12:13:25;;;;;;;1.80;1.30;;;;;;;23.92;36.81;102658.01;1692195;83;21071;-52